createdAt,value
2018-07-13T00:00:41.551Z,11.03
2018-07-13T00:03:09.452Z,14.25
2018-07-13T00:05:37.387Z,11.22
2018-07-13T00:08:05.726Z,10.60
2018-07-13T00:10:33.707Z,12.70
2018-07-13T00:13:01.782Z,14.63
2018-07-13T00:15:30.338Z,13.10
2018-07-13T00:17:58.434Z,11.97
2018-07-13T00:20:26.468Z,13.90
2018-07-13T00:22:54.455Z,11.95
2018-07-13T00:25:22.404Z,14.93
2018-07-13T00:27:50.413Z,12.28
2018-07-13T00:30:18.318Z,15.35
2018-07-13T00:32:46.640Z,13.58
2018-07-13T00:35:14.634Z,15.05
2018-07-13T00:37:42.566Z,15.43
2018-07-13T00:40:10.798Z,12.70
2018-07-13T00:42:38.769Z,13.85
2018-07-13T00:45:06.717Z,14.80
2018-07-13T00:47:34.672Z,14.90
2018-07-13T00:50:02.727Z,13.65
2018-07-13T00:52:30.641Z,13.40
2018-07-13T00:54:58.602Z,14.28
2018-07-13T00:57:26.509Z,13.98
2018-07-13T00:59:54.429Z,15.23
2018-07-13T01:02:22.330Z,14.23
2018-07-13T01:04:50.322Z,13.25
2018-07-13T01:07:18.350Z,14.60
2018-07-13T01:09:46.334Z,17.20
2018-07-13T01:12:14.291Z,15.38
2018-07-13T01:14:42.502Z,15.83
2018-07-13T01:17:10.520Z,14.35
2018-07-13T01:19:38.455Z,15.55
2018-07-13T01:22:06.643Z,13.58
2018-07-13T01:24:34.594Z,15.53
2018-07-13T01:27:02.470Z,13.22
2018-07-13T01:29:30.442Z,13.53
2018-07-13T01:31:58.501Z,14.05
2018-07-13T01:34:26.549Z,15.13
2018-07-13T01:36:54.565Z,15.23
2018-07-13T01:39:22.542Z,16.20
2018-07-13T01:41:50.531Z,16.87
2018-07-13T01:44:18.525Z,15.10
2018-07-13T01:46:46.424Z,14.98
2018-07-13T01:49:15.089Z,13.95
2018-07-13T01:51:43.013Z,14.90
2018-07-13T01:54:10.932Z,15.55
2018-07-13T01:56:39.938Z,14.68
2018-07-13T01:59:07.970Z,15.20
2018-07-13T02:01:35.914Z,13.93
2018-07-13T02:04:03.855Z,13.62
2018-07-13T02:06:31.763Z,16.85
2018-07-13T02:08:59.710Z,13.70
2018-07-13T02:11:27.702Z,11.30
2018-07-13T02:13:55.677Z,13.58
2018-07-13T02:16:23.725Z,13.53
2018-07-13T02:18:51.642Z,12.98
2018-07-13T02:21:19.543Z,12.45
2018-07-13T02:23:47.469Z,15.38
2018-07-13T02:26:15.373Z,12.60
2018-07-13T02:28:43.326Z,13.00
2018-07-13T02:31:11.245Z,12.55
2018-07-13T02:33:39.258Z,12.95
2018-07-13T02:36:07.188Z,14.60
2018-07-13T02:38:35.408Z,14.28
2018-07-13T02:41:03.325Z,15.48
2018-07-13T02:43:31.588Z,14.83
2018-07-13T02:45:59.510Z,14.78
2018-07-13T02:48:27.459Z,11.88
2018-07-13T02:50:55.340Z,12.93
2018-07-13T02:53:23.285Z,14.00
2018-07-13T02:55:51.208Z,14.53
2018-07-13T02:58:19.174Z,14.87
2018-07-13T03:00:47.134Z,15.45
2018-07-13T03:03:15.146Z,14.35
2018-07-13T03:05:43.386Z,13.60
2018-07-13T03:08:11.323Z,14.43
2018-07-13T03:10:39.285Z,15.23
2018-07-13T03:13:07.245Z,12.58
2018-07-13T03:15:35.889Z,15.03
2018-07-13T03:18:03.812Z,12.40
2018-07-13T03:20:31.767Z,16.75
2018-07-13T03:22:59.722Z,15.60
2018-07-13T03:25:27.823Z,14.83
2018-07-13T03:27:56.761Z,14.60
2018-07-13T03:30:24.811Z,15.60
2018-07-13T03:32:52.814Z,12.78
2018-07-13T03:35:20.740Z,15.23
2018-07-13T03:37:48.622Z,14.43
2018-07-13T03:40:16.564Z,14.55
2018-07-13T03:42:44.545Z,14.35
2018-07-13T03:45:12.585Z,15.05
2018-07-13T03:47:40.606Z,14.95
2018-07-13T03:50:08.812Z,14.83
2018-07-13T03:52:36.769Z,13.95
2018-07-13T03:55:05.647Z,14.38
2018-07-13T03:57:33.706Z,14.15
2018-07-13T04:00:01.837Z,14.28
2018-07-13T04:02:29.860Z,15.80
2018-07-13T04:04:57.886Z,16.95
2018-07-13T04:07:25.840Z,14.33
2018-07-13T04:09:53.719Z,14.53
2018-07-13T04:12:21.666Z,16.67
2018-07-13T04:14:49.824Z,16.80
2018-07-13T04:17:17.813Z,16.35
2018-07-13T04:19:45.700Z,15.72
2018-07-13T04:22:13.702Z,15.58
2018-07-13T04:24:41.832Z,17.40
2018-07-13T04:27:10.064Z,15.95
2018-07-13T04:29:38.106Z,16.00
2018-07-13T04:32:06.263Z,18.10
2018-07-13T04:34:34.358Z,17.07
2018-07-13T04:37:02.368Z,16.50
2018-07-13T04:39:30.372Z,17.27
2018-07-13T04:41:58.302Z,17.70
2018-07-13T04:44:26.331Z,18.80
2018-07-13T04:46:54.490Z,18.70
2018-07-13T04:49:22.565Z,15.93
2018-07-13T04:51:50.902Z,16.77
2018-07-13T04:54:19.062Z,18.60
2018-07-13T04:56:47.204Z,18.37
2018-07-13T04:59:15.376Z,16.73
2018-07-13T05:01:43.517Z,19.42
2018-07-13T05:04:12.100Z,17.52
2018-07-13T05:06:40.891Z,21.48
2018-07-13T05:09:09.200Z,20.57
2018-07-13T05:11:37.254Z,16.85
2018-07-13T05:14:05.270Z,17.20
2018-07-13T05:16:33.490Z,19.75
2018-07-13T05:19:01.477Z,18.90
2018-07-13T05:21:29.643Z,17.87
2018-07-13T05:23:58.138Z,17.90
2018-07-13T05:26:26.742Z,19.70
2018-07-13T05:28:54.957Z,18.10
2018-07-13T05:31:23.118Z,17.12
2018-07-13T05:33:51.390Z,19.57
2018-07-13T05:36:19.479Z,20.50
2018-07-13T05:38:47.682Z,18.02
2018-07-13T05:41:15.930Z,18.30
2018-07-13T05:43:44.083Z,18.82
2018-07-13T05:46:12.646Z,18.23
2018-07-13T05:48:41.058Z,19.82
2018-07-13T05:51:09.135Z,18.42
2018-07-13T05:53:37.382Z,20.40
2018-07-13T05:56:05.987Z,17.60
2018-07-13T05:58:34.288Z,16.15
2018-07-13T06:01:02.441Z,17.00
2018-07-13T06:03:30.717Z,18.30
2018-07-13T06:05:58.986Z,19.40
2018-07-13T06:08:28.815Z,18.95
2018-07-13T06:10:57.210Z,17.55
2018-07-13T06:13:25.215Z,17.32
2018-07-13T06:15:53.156Z,20.97
2018-07-13T06:18:21.086Z,18.48
2018-07-13T06:20:49.087Z,17.15
2018-07-13T06:23:16.954Z,17.92
2018-07-13T06:25:45.107Z,17.90
2018-07-13T06:28:13.118Z,18.40
2018-07-13T06:30:41.078Z,20.08
2018-07-13T06:33:09.215Z,18.27
2018-07-13T06:35:37.243Z,17.30
2018-07-13T06:38:05.572Z,19.52
2018-07-13T06:40:33.631Z,17.90
2018-07-13T06:43:01.651Z,19.42
2018-07-13T06:45:30.539Z,17.20
2018-07-13T06:47:58.597Z,18.17
2018-07-13T06:50:26.740Z,17.10
2018-07-13T06:52:55.302Z,18.15
2018-07-13T06:55:23.393Z,18.10
2018-07-13T06:58:02.485Z,18.17
2018-07-13T07:01:08.530Z,18.17
2018-07-13T07:03:41.674Z,18.60
2018-07-13T07:06:12.529Z,17.20
2018-07-13T07:08:49.421Z,18.40
2018-07-13T07:11:19.451Z,17.73
2018-07-13T07:13:47.692Z,17.37
2018-07-13T07:16:15.710Z,18.40
2018-07-13T07:18:43.687Z,17.07
2018-07-13T07:21:12.356Z,17.90
2018-07-13T07:23:40.431Z,19.85
2018-07-13T07:26:08.521Z,17.98
2018-07-13T07:28:36.425Z,18.05
2018-07-13T07:31:04.553Z,17.98
2018-07-13T07:33:32.467Z,18.32
2018-07-13T07:36:00.895Z,21.77
2018-07-13T07:38:30.020Z,18.12
2018-07-13T07:40:58.589Z,20.48
2018-07-13T07:43:26.876Z,22.70
2018-07-13T07:45:55.223Z,18.17
2018-07-13T07:48:23.359Z,19.75
2018-07-13T07:50:52.186Z,23.12
2018-07-13T07:53:21.033Z,18.42
2018-07-13T07:55:49.102Z,20.20
2018-07-13T07:58:18.125Z,17.82
2018-07-13T08:00:46.457Z,19.52
2018-07-13T08:03:15.000Z,18.95
2018-07-13T08:05:42.967Z,19.42
2018-07-13T08:08:10.937Z,20.15
2018-07-13T08:10:38.931Z,18.32
2018-07-13T08:13:07.853Z,19.12
2018-07-13T08:15:35.926Z,18.40
2018-07-13T08:18:03.933Z,19.73
2018-07-13T08:20:35.477Z,19.48
2018-07-13T08:23:08.477Z,19.52
2018-07-13T08:25:38.145Z,20.97
2018-07-13T08:28:07.547Z,19.40
2018-07-13T08:30:41.297Z,19.73
2018-07-13T08:33:11.167Z,21.80
2018-07-13T08:35:39.279Z,20.27
2018-07-13T08:38:08.284Z,19.77
2018-07-13T08:40:36.447Z,19.77
2018-07-13T08:43:04.651Z,20.80
2018-07-13T08:45:49.416Z,20.10
2018-07-13T08:48:17.524Z,19.60
2018-07-13T08:50:47.612Z,20.27
2018-07-13T08:53:16.298Z,19.85
2018-07-13T08:55:44.531Z,21.10
2018-07-13T08:58:13.282Z,21.17
2018-07-13T09:00:42.202Z,19.17
2018-07-13T09:03:10.157Z,17.77
2018-07-13T09:05:38.633Z,19.55
2018-07-13T09:08:06.766Z,19.25
2018-07-13T09:10:34.992Z,19.87
2018-07-13T09:13:03.347Z,17.92
2018-07-13T09:15:31.604Z,20.55
2018-07-13T09:18:00.104Z,19.17
2018-07-13T09:20:28.255Z,18.32
2018-07-13T09:22:56.235Z,19.32
2018-07-13T09:25:24.273Z,16.95
2018-07-13T09:27:53.018Z,18.67
2018-07-13T09:30:21.160Z,18.30
2018-07-13T09:32:49.149Z,17.42
2018-07-13T09:35:17.828Z,17.40
2018-07-13T09:37:45.890Z,16.32
2018-07-13T09:40:14.094Z,20.30
2018-07-13T09:42:48.939Z,16.52
2018-07-13T09:45:16.975Z,17.57
2018-07-13T09:47:45.131Z,20.30
2018-07-13T09:50:19.992Z,18.73
2018-07-13T09:52:48.238Z,19.40
2018-07-13T09:55:16.366Z,20.08
2018-07-13T09:57:44.491Z,19.20
2018-07-13T10:00:13.270Z,19.37
2018-07-13T10:02:41.588Z,19.27
2018-07-13T10:05:09.931Z,20.62
2018-07-13T10:07:39.844Z,20.52
2018-07-13T10:10:08.856Z,19.17
2018-07-13T10:12:38.530Z,18.90
2018-07-13T10:15:07.097Z,18.00
2018-07-13T10:17:35.351Z,20.62
2018-07-13T10:20:03.637Z,20.32
2018-07-13T10:22:32.823Z,17.92
2018-07-13T10:25:02.927Z,20.35
2018-07-13T10:27:34.725Z,17.95
2018-07-13T10:30:06.636Z,18.27
2018-07-13T10:32:36.388Z,20.17
2018-07-13T10:35:07.513Z,17.65
2018-07-13T10:37:35.722Z,19.70
2018-07-13T10:40:03.768Z,17.80
2018-07-13T10:42:32.547Z,18.92
2018-07-13T10:45:00.599Z,17.55
2018-07-13T10:47:28.630Z,19.12
2018-07-13T10:49:56.590Z,19.85
2018-07-13T10:52:24.566Z,17.60
2018-07-13T10:54:52.519Z,17.45
2018-07-13T10:57:20.750Z,16.85
2018-07-13T10:59:48.751Z,17.55
2018-07-13T11:02:16.825Z,17.95
2018-07-13T11:04:44.743Z,17.80
2018-07-13T11:07:12.694Z,19.42
2018-07-13T11:09:40.670Z,17.75
2018-07-13T11:12:08.674Z,15.98
2018-07-13T11:14:37.842Z,17.20
2018-07-13T11:17:05.772Z,16.52
2018-07-13T11:19:33.714Z,16.27
2018-07-13T11:22:01.851Z,16.65
2018-07-13T11:24:29.791Z,17.12
2018-07-13T11:26:57.753Z,17.67
2018-07-13T11:29:25.816Z,17.30
2018-07-13T11:31:53.753Z,16.65
2018-07-13T11:34:21.664Z,15.13
2018-07-13T11:36:49.661Z,19.27
2018-07-13T11:39:17.598Z,16.17
2018-07-13T11:41:45.518Z,17.37
2018-07-13T11:44:13.512Z,15.68
2018-07-13T11:46:42.915Z,16.82
2018-07-13T11:49:13.592Z,15.78
2018-07-13T11:51:41.652Z,17.65
2018-07-13T11:54:09.585Z,18.40
2018-07-13T11:56:37.727Z,18.17
2018-07-13T11:59:06.869Z,20.27
2018-07-13T12:01:36.122Z,18.12
2018-07-13T12:04:04.476Z,17.73
2018-07-13T12:06:32.452Z,15.75
2018-07-13T12:09:00.913Z,14.78
2018-07-13T12:11:28.932Z,16.75
2018-07-13T12:13:56.911Z,16.10
2018-07-13T12:16:25.501Z,18.48
2018-07-13T12:18:53.444Z,15.63
2018-07-13T12:21:21.591Z,16.17
2018-07-13T12:23:49.572Z,18.52
2018-07-13T12:26:17.941Z,15.98
2018-07-13T12:28:45.885Z,17.50
2018-07-13T12:31:14.329Z,16.20
2018-07-13T12:33:42.290Z,15.28
2018-07-13T12:36:10.446Z,16.45
2018-07-13T12:38:38.616Z,17.10
2018-07-13T12:41:06.641Z,14.30
2018-07-13T12:43:34.648Z,15.68
2018-07-13T12:46:02.661Z,14.03
2018-07-13T12:48:30.597Z,13.95
2018-07-13T12:50:58.635Z,13.22
2018-07-13T12:53:26.623Z,13.58
2018-07-13T12:55:54.595Z,15.68
2018-07-13T12:58:22.521Z,13.62
2018-07-13T13:00:50.453Z,12.53
2018-07-13T13:03:18.480Z,12.55
2018-07-13T13:05:46.493Z,12.65
2018-07-13T13:08:14.404Z,11.88
2018-07-13T13:10:44.346Z,11.00
2018-07-13T13:13:14.000Z,10.75
2018-07-13T13:15:42.044Z,12.37
2018-07-13T13:18:09.982Z,12.43
2018-07-13T13:20:37.885Z,11.40
2018-07-13T13:23:06.272Z,12.07
2018-07-13T13:25:34.339Z,13.13
2018-07-13T13:28:02.265Z,11.95
2018-07-13T13:30:31.053Z,11.63
2018-07-13T13:32:59.392Z,13.40
2018-07-13T13:35:27.408Z,13.43
2018-07-13T13:37:55.328Z,10.82
2018-07-13T13:40:23.286Z,11.57
2018-07-13T13:42:51.223Z,11.93
2018-07-13T13:45:19.130Z,11.35
2018-07-13T13:47:47.092Z,12.68
2018-07-13T13:50:15.086Z,12.45
2018-07-13T13:52:43.083Z,13.30
2018-07-13T13:55:11.074Z,10.60
2018-07-13T13:57:39.044Z,12.63
2018-07-13T14:00:06.987Z,12.13
2018-07-13T14:02:34.915Z,12.93
2018-07-13T14:05:02.993Z,12.40
2018-07-13T14:07:30.983Z,14.18
2018-07-13T14:09:58.991Z,11.48
2018-07-13T14:12:27.000Z,11.93
2018-07-13T14:14:54.985Z,11.83
2018-07-13T14:17:23.002Z,12.90
2018-07-13T14:19:50.990Z,12.45
2018-07-13T14:22:18.918Z,12.55
2018-07-13T14:24:46.963Z,11.80
2018-07-13T14:27:15.003Z,13.05
2018-07-13T14:29:44.154Z,12.20
2018-07-13T14:32:12.465Z,11.95
2018-07-13T14:34:40.606Z,11.33
2018-07-13T14:37:08.651Z,11.83
2018-07-13T14:39:36.755Z,12.95
2018-07-13T14:42:06.865Z,13.40
2018-07-13T14:44:35.008Z,13.10
2018-07-13T14:47:03.342Z,13.00
2018-07-13T14:49:31.835Z,14.83
2018-07-13T14:51:59.817Z,12.95
2018-07-13T14:54:39.212Z,17.25
2018-07-13T14:57:15.309Z,12.75
2018-07-13T14:59:47.016Z,13.78
2018-07-13T15:02:15.179Z,12.58
2018-07-13T15:04:43.239Z,12.60
2018-07-13T15:07:11.669Z,11.88
2018-07-13T15:09:39.713Z,13.25
2018-07-13T15:12:09.080Z,13.15
2018-07-13T15:14:37.559Z,12.33
2018-07-13T15:17:05.751Z,11.55
2018-07-13T15:19:33.766Z,11.90
2018-07-13T15:22:01.834Z,12.75
2018-07-13T15:24:29.777Z,12.88
2018-07-13T15:26:57.980Z,13.15
2018-07-13T15:29:25.939Z,13.03
2018-07-13T15:31:53.947Z,10.32
2018-07-13T15:34:22.128Z,11.48
2018-07-13T15:36:50.206Z,11.97
2018-07-13T15:39:22.775Z,11.90
2018-07-13T15:41:50.906Z,10.98
2018-07-13T15:44:19.018Z,9.00
2018-07-13T15:46:47.085Z,9.70
2018-07-13T15:49:15.088Z,10.23
2018-07-13T15:51:43.119Z,11.85
2018-07-13T15:54:11.173Z,10.45
2018-07-13T15:56:39.335Z,11.03
2018-07-13T15:59:07.357Z,12.30
2018-07-13T16:01:35.471Z,12.63
2018-07-13T16:04:03.774Z,13.62
2018-07-13T16:06:32.698Z,13.10
2018-07-13T16:09:00.664Z,12.68
2018-07-13T16:11:28.691Z,13.25
2018-07-13T16:13:56.666Z,12.18
2018-07-13T16:16:24.648Z,11.97
2018-07-13T16:18:52.823Z,11.48
2018-07-13T16:21:20.930Z,12.65
2018-07-13T16:23:49.069Z,11.93
2018-07-13T16:26:16.973Z,11.48
2018-07-13T16:28:45.136Z,12.82
2018-07-13T16:31:13.090Z,11.97
2018-07-13T16:33:41.207Z,11.28
2018-07-13T16:36:10.407Z,11.08
2018-07-13T16:38:39.170Z,11.83
2018-07-13T16:41:07.264Z,11.73
2018-07-13T16:43:35.319Z,11.85
2018-07-13T16:46:03.495Z,13.22
2018-07-13T16:48:31.622Z,8.78
2018-07-13T16:50:59.734Z,9.55
2018-07-13T16:53:28.058Z,10.40
2018-07-13T16:55:56.167Z,9.15
2018-07-13T16:58:24.134Z,7.30
2018-07-13T17:00:52.256Z,9.38
2018-07-13T17:03:20.386Z,10.70
2018-07-13T17:05:48.429Z,10.50
2018-07-13T17:08:16.496Z,8.65
2018-07-13T17:10:44.617Z,10.25
2018-07-13T17:13:12.728Z,10.38
2018-07-13T17:15:40.999Z,10.28
2018-07-13T17:18:09.073Z,9.40
2018-07-13T17:20:37.360Z,12.33
2018-07-13T17:23:05.997Z,8.90
2018-07-13T17:25:34.052Z,7.90
2018-07-13T17:28:02.076Z,9.55
2018-07-13T17:30:30.077Z,8.45
2018-07-13T17:32:58.071Z,10.78
2018-07-13T17:35:26.097Z,9.88
2018-07-13T17:37:54.090Z,13.85
2018-07-13T17:40:22.021Z,10.30
2018-07-13T17:42:50.107Z,10.53
2018-07-13T17:45:18.513Z,10.08
2018-07-13T17:47:46.547Z,8.13
2018-07-13T17:50:14.609Z,7.25
2018-07-13T17:52:42.651Z,9.95
2018-07-13T17:55:10.649Z,11.88
2018-07-13T17:57:38.626Z,14.33
2018-07-13T18:00:07.465Z,12.30
2018-07-13T18:02:35.698Z,10.50
2018-07-13T18:05:03.879Z,12.93
2018-07-13T18:07:31.980Z,13.30
2018-07-13T18:10:06.797Z,13.85
2018-07-13T18:12:34.787Z,13.90
2018-07-13T18:15:03.153Z,10.80
2018-07-13T18:17:31.242Z,9.13
2018-07-13T18:19:59.291Z,12.50
2018-07-13T18:22:27.267Z,11.15
2018-07-13T18:24:55.305Z,10.90
2018-07-13T18:27:23.828Z,12.65
2018-07-13T18:29:51.818Z,14.07
2018-07-13T18:32:19.860Z,11.57
2018-07-13T18:34:47.915Z,11.48
2018-07-13T18:37:15.983Z,11.80
2018-07-13T18:39:44.092Z,13.32
2018-07-13T18:42:12.161Z,17.00
2018-07-13T18:44:41.172Z,14.65
2018-07-13T18:47:09.505Z,15.98
2018-07-13T18:49:37.495Z,11.68
2018-07-13T18:52:06.116Z,11.70
2018-07-13T18:54:34.265Z,11.90
2018-07-13T18:57:02.445Z,12.93
2018-07-13T18:59:30.594Z,14.28
2018-07-13T19:01:58.998Z,10.88
2018-07-13T19:04:27.173Z,14.18
2018-07-13T19:06:55.289Z,12.10
2018-07-13T19:09:23.327Z,9.90
2018-07-13T19:11:51.338Z,12.18
2018-07-13T19:14:19.257Z,9.90
2018-07-13T19:16:47.323Z,9.00
2018-07-13T19:19:15.573Z,11.88
2018-07-13T19:21:43.560Z,11.80
2018-07-13T19:24:11.585Z,10.50
2018-07-13T19:26:39.546Z,10.25
2018-07-13T19:29:07.582Z,14.38
2018-07-13T19:31:35.563Z,10.18
2018-07-13T19:34:03.580Z,12.15
2018-07-13T19:36:31.654Z,16.07
2018-07-13T19:38:59.624Z,9.33
2018-07-13T19:41:27.736Z,10.00
2018-07-13T19:43:55.796Z,11.65
2018-07-13T19:46:23.778Z,10.63
2018-07-13T19:48:51.818Z,9.88
2018-07-13T19:51:19.987Z,13.20
2018-07-13T19:53:54.304Z,11.38
2018-07-13T19:56:23.393Z,11.22
2018-07-13T19:58:51.897Z,11.22
2018-07-13T20:01:19.970Z,11.03
2018-07-13T20:03:47.932Z,11.10
2018-07-13T20:06:15.912Z,13.22
2018-07-13T20:08:44.020Z,14.45
2018-07-13T20:11:12.118Z,10.48
2018-07-13T20:13:40.329Z,13.72
2018-07-13T20:16:08.526Z,12.23
2018-07-13T20:18:36.514Z,11.15
2018-07-13T20:21:04.436Z,10.18
2018-07-13T20:23:32.798Z,11.48
2018-07-13T20:26:00.796Z,11.03
2018-07-13T20:28:28.837Z,11.15
2018-07-13T20:30:56.867Z,13.25
2018-07-13T20:33:24.926Z,12.75
2018-07-13T20:35:52.884Z,13.20
2018-07-13T20:38:20.966Z,10.68
2018-07-13T20:40:49.020Z,13.68
2018-07-13T20:43:16.950Z,12.00
2018-07-13T20:45:45.058Z,12.00
2018-07-13T20:48:13.058Z,11.78
2018-07-13T20:50:41.093Z,12.23
2018-07-13T20:53:09.171Z,13.05
2018-07-13T20:55:37.248Z,13.03
2018-07-13T20:58:05.238Z,11.15
2018-07-13T21:00:33.350Z,15.25
2018-07-13T21:03:01.622Z,13.38
2018-07-13T21:05:29.503Z,16.07
2018-07-13T21:07:57.536Z,13.53
2018-07-13T21:10:26.578Z,17.12
2018-07-13T21:12:55.331Z,16.00
2018-07-13T21:15:23.426Z,15.75
2018-07-13T21:17:52.916Z,17.48
2018-07-13T21:20:21.664Z,15.72
2018-07-13T21:22:50.341Z,17.40
2018-07-13T21:25:19.650Z,16.23
2018-07-13T21:27:48.714Z,17.48
2018-07-13T21:30:17.065Z,16.23
2018-07-13T21:32:46.347Z,18.17
2018-07-13T21:35:16.490Z,18.35
2018-07-13T21:37:46.817Z,18.37
2018-07-13T21:40:15.754Z,16.55
2018-07-13T21:42:44.382Z,16.48
2018-07-13T21:45:13.580Z,17.60
2018-07-13T21:47:42.393Z,15.72
2018-07-13T21:50:11.063Z,16.35
2018-07-13T21:52:40.752Z,16.27
2018-07-13T21:55:09.546Z,15.68
2018-07-13T21:57:38.311Z,17.67
2018-07-13T22:00:06.914Z,16.05
2018-07-13T22:02:38.068Z,14.45
2018-07-13T22:05:07.692Z,17.32
2018-07-13T22:07:37.136Z,14.30
2018-07-13T22:10:05.218Z,14.60
2018-07-13T22:12:33.206Z,13.62
2018-07-13T22:15:01.228Z,15.15
2018-07-13T22:17:29.226Z,15.40
2018-07-13T22:19:57.324Z,14.33
2018-07-13T22:22:25.725Z,13.32
2018-07-13T22:24:53.670Z,13.35
2018-07-13T22:27:23.715Z,12.88
2018-07-13T22:29:51.773Z,13.88
2018-07-13T22:32:19.760Z,13.35
2018-07-13T22:34:47.823Z,13.00
2018-07-13T22:37:15.860Z,12.75
2018-07-13T22:39:43.875Z,13.22
2018-07-13T22:42:11.936Z,13.03
2018-07-13T22:44:40.003Z,10.75
2018-07-13T22:47:08.018Z,11.97
2018-07-13T22:49:36.046Z,10.88
2018-07-13T22:52:04.180Z,11.88
2018-07-13T22:54:32.114Z,11.75
2018-07-13T22:57:00.263Z,11.05
2018-07-13T22:59:28.254Z,12.95
2018-07-13T23:01:56.395Z,11.05
2018-07-13T23:04:24.481Z,11.28
2018-07-13T23:06:52.492Z,9.35
2018-07-13T23:09:20.471Z,10.95
2018-07-13T23:11:48.528Z,11.68
2018-07-13T23:14:16.548Z,13.58
2018-07-13T23:16:44.536Z,10.43
2018-07-13T23:19:12.591Z,10.23
2018-07-13T23:21:40.679Z,10.60
2018-07-13T23:24:08.970Z,11.55
2018-07-13T23:26:37.143Z,10.38
2018-07-13T23:29:05.196Z,11.43
2018-07-13T23:31:33.322Z,11.40
2018-07-13T23:34:01.327Z,9.08
2018-07-13T23:36:29.259Z,9.68
2018-07-13T23:38:57.184Z,9.50
2018-07-13T23:41:25.169Z,10.55
2018-07-13T23:43:53.596Z,12.25
2018-07-13T23:46:21.621Z,9.70
2018-07-13T23:48:49.535Z,9.98
2018-07-13T23:51:17.491Z,9.45
2018-07-13T23:53:45.415Z,8.48
2018-07-13T23:56:13.456Z,7.25
2018-07-13T23:58:41.449Z,7.05
